Terminal Aerodrome Forecast
Issued by NWS

Home | Current Version | Previous Version | Text Only | Print | Product List | Glossary On
Versions: 1 2 3 4 5 6 7 8 9 10 11 12 13 14 15 16
000
FTUS43 KPAH 270500 CCA
TAFCGI
TAF COR
KCGI 270540Z 2706/2806 28007KT P6SM -RA OVC020
      TEMPO 2706/2709 5SM -SN BR OVC009
     FM270900 32009KT P6SM OVC020
     FM271200 34010KT P6SM BKN020
     FM271800 33009KT P6SM SCT020=

USA.gov is the U.S. government's official web portal to all federal, state and local government web resources and services.